Time;durP1;ratioP1;P1;durP2;ratioP2;P2;SDS_P1;SDS_P2;PMS_P1;PMS_P2;Temp;Humidity;BMP_temperature;BMP_pressure;BME280_temperature;BME280_humidity;BME280_pressure;Samples;Min_cycle;Max_cycle;Signal;HPM_P1;HPM_P2
2022/08/29 00:00:32;;;;;;;;;;;16.00;99.90;;;;;;5073167;28;19962;-52
2022/08/29 00:02:58;;;;;;;;;;;16.00;99.90;;;;;;5072942;28;19920;-48
2022/08/29 00:05:26;;;;;;;;;;;15.90;99.90;;;;;;5072705;28;20018;-49
2022/08/29 00:07:52;;;;;;;;;;;15.80;99.90;;;;;;5072972;28;19983;-49
2022/08/29 00:10:17;;;;;;;;;;;15.80;99.90;;;;;;5071669;28;19940;-48
2022/08/29 00:12:43;;;;;;;;;;;15.80;99.90;;;;;;5072604;28;20351;-49
2022/08/29 00:15:10;;;;;;;;;;;15.70;99.90;;;;;;5072695;28;19924;-50
2022/08/29 00:17:35;;;;;;;;;;;15.70;99.90;;;;;;5072079;28;19924;-46
2022/08/29 00:20:02;;;;;;;;;;;15.80;99.90;;;;;;5072664;28;19939;-47
2022/08/29 00:22:28;;;;;;;;;;;15.80;99.90;;;;;;5072735;28;19924;-47
2022/08/29 00:24:53;;;;;;;;;;;15.80;99.90;;;;;;5072791;28;19943;-48
2022/08/29 00:27:19;;;;;;;;;;;15.80;99.90;;;;;;5072484;28;19939;-49
2022/08/29 00:29:44;;;;;;;;;;;15.80;99.90;;;;;;5071204;28;19917;-48
2022/08/29 00:32:10;;;;;;;;;;;15.90;99.90;;;;;;5072178;28;20514;-49
2022/08/29 00:34:36;;;;;;;;;;;15.80;99.90;;;;;;5072117;28;19935;-46
2022/08/29 00:37:01;;;;;;;;;;;15.80;99.90;;;;;;5072585;28;19927;-47
2022/08/29 00:39:27;;;;;;;;;;;15.80;99.90;;;;;;5072292;28;19924;-51
2022/08/29 00:41:52;;;;;;;;;;;15.80;99.90;;;;;;5071271;28;19924;-49
2022/08/29 00:44:18;;;;;;;;;;;15.80;99.90;;;;;;5071792;28;20003;-46
2022/08/29 00:46:46;;;;;;;;;;;15.80;99.90;;;;;;5070705;28;20379;-47
2022/08/29 00:49:21;;;;;;;;;;;15.80;99.90;;;;;;5071967;28;19970;-47
2022/08/29 00:51:47;;;;;;;;;;;15.80;99.90;;;;;;5071507;28;19968;-51
2022/08/29 00:54:13;;;;;;;;;;;15.80;99.90;;;;;;5072073;28;19975;-49
2022/08/29 00:56:40;;;;;;;;;;;15.90;99.90;;;;;;5071803;28;19970;-49
2022/08/29 00:59:10;;;;;;;;;;;15.80;99.90;;;;;;5072069;28;19969;-48
2022/08/29 01:01:36;;;;;;;;;;;15.80;99.90;;;;;;5071875;28;19920;-49
2022/08/29 01:04:02;;;;;;;;;;;15.80;99.90;;;;;;5072037;28;20279;-49
2022/08/29 01:06:28;;;;;;;;;;;15.80;99.90;;;;;;5071960;28;20320;-47
2022/08/29 01:08:54;;;;;;;;;;;15.80;99.90;;;;;;5071721;28;19929;-47
2022/08/29 01:14:03;;;;;;;;;;;15.90;99.90;;;;;;5071460;28;19927;-49
2022/08/29 01:16:29;;;;;;;;;;;15.90;99.90;;;;;;5071599;28;20370;-49
2022/08/29 01:19:02;;;;;;;;;;;16.00;99.90;;;;;;5071849;28;19972;-47
2022/08/29 01:21:40;;;;;;;;;;;16.00;99.90;;;;;;5071189;28;19920;-50
2022/08/29 01:24:08;;;;;;;;;;;15.90;99.90;;;;;;5070648;28;19974;-47
2022/08/29 01:26:34;;;;;;;;;;;15.90;99.90;;;;;;5071233;28;19925;-47
2022/08/29 01:28:59;;;;;;;;;;;15.90;99.90;;;;;;5070976;28;19974;-47
2022/08/29 01:31:35;;;;;;;;;;;15.90;99.90;;;;;;5071047;28;19916;-49
2022/08/29 01:34:00;;;;;;;;;;;15.90;99.90;;;;;;5071382;28;20413;-50
2022/08/29 01:36:40;;;;;;;;;;;15.80;99.90;;;;;;5071162;28;19928;-48
2022/08/29 01:39:07;;;;;;;;;;;15.90;99.90;;;;;;5071150;28;20372;-50
2022/08/29 01:41:33;;;;;;;;;;;15.90;99.90;;;;;;5071125;28;19920;-50
2022/08/29 01:43:59;;;;;;;;;;;15.90;99.90;;;;;;5070783;28;19966;-50
2022/08/29 01:46:28;;;;;;;;;;;15.90;99.90;;;;;;5070790;28;20376;-49
2022/08/29 01:48:54;;;;;;;;;;;15.90;99.90;;;;;;5070726;28;19974;-48
2022/08/29 01:51:20;;;;;;;;;;;16.00;99.90;;;;;;5070795;28;20398;-50
2022/08/29 01:53:46;;;;;;;;;;;15.90;99.90;;;;;;5069191;28;20129;-46
2022/08/29 01:56:13;;;;;;;;;;;16.00;99.90;;;;;;5070844;28;20399;-46
2022/08/29 01:58:39;;;;;;;;;;;15.90;99.90;;;;;;5069749;28;20379;-49
2022/08/29 02:01:06;;;;;;;;;;;16.00;99.90;;;;;;5070943;28;19920;-47
2022/08/29 02:03:32;;;;;;;;;;;15.90;99.90;;;;;;5070882;28;19920;-49
2022/08/29 02:05:59;;;;;;;;;;;16.00;99.90;;;;;;5070778;28;20292;-47
2022/08/29 02:08:25;;;;;;;;;;;15.90;99.90;;;;;;5070852;28;20453;-48
2022/08/29 02:10:50;;;;;;;;;;;15.90;99.90;;;;;;5070293;28;19971;-49
2022/08/29 02:13:16;;;;;;;;;;;15.80;99.90;;;;;;5070527;28;20004;-46
2022/08/29 02:15:42;;;;;;;;;;;15.80;99.90;;;;;;5068006;28;19917;-50
2022/08/29 02:18:07;;;;;;;;;;;15.70;99.90;;;;;;5070844;28;20327;-46
2022/08/29 02:20:33;;;;;;;;;;;15.70;99.90;;;;;;5070626;28;20019;-48
2022/08/29 02:22:59;;;;;;;;;;;15.70;99.90;;;;;;5069184;28;20405;-51
2022/08/29 02:25:45;;;;;;;;;;;15.70;99.90;;;;;;5070353;28;19920;-48
2022/08/29 02:28:11;;;;;;;;;;;15.70;99.90;;;;;;5070648;28;19970;-47
2022/08/29 02:30:38;;;;;;;;;;;15.70;99.90;;;;;;5070403;28;20345;-47
2022/08/29 02:33:04;;;;;;;;;;;15.60;99.90;;;;;;5070357;28;20006;-48
2022/08/29 02:35:29;;;;;;;;;;;15.60;99.90;;;;;;5070379;28;20009;-46
2022/08/29 02:37:55;;;;;;;;;;;15.70;99.90;;;;;;5070554;28;19921;-48
2022/08/29 02:40:21;;;;;;;;;;;15.70;99.90;;;;;;5070327;28;19969;-49
2022/08/29 02:42:46;;;;;;;;;;;15.60;99.90;;;;;;5069930;28;19916;-47
2022/08/29 02:45:12;;;;;;;;;;;15.60;99.90;;;;;;5070268;28;19974;-48
2022/08/29 02:47:37;;;;;;;;;;;15.60;99.90;;;;;;5069884;28;20039;-50
2022/08/29 02:50:05;;;;;;;;;;;15.60;99.90;;;;;;5070481;28;19917;-48
2022/08/29 02:52:30;;;;;;;;;;;15.70;99.90;;;;;;5070277;28;19917;-50
2022/08/29 02:54:56;;;;;;;;;;;15.70;99.90;;;;;;5070234;28;19921;-50
2022/08/29 02:57:22;;;;;;;;;;;15.70;99.90;;;;;;5070245;28;19924;-49
2022/08/29 02:59:48;;;;;;;;;;;15.60;99.90;;;;;;5069921;28;19924;-48
2022/08/29 03:02:13;;;;;;;;;;;15.70;99.90;;;;;;5068834;28;19966;-48
2022/08/29 03:04:39;;;;;;;;;;;15.60;99.90;;;;;;5070242;28;19916;-48
2022/08/29 03:07:04;;;;;;;;;;;15.70;99.90;;;;;;5074253;28;19923;-45
2022/08/29 03:09:30;;;;;;;;;;;15.70;99.90;;;;;;5073854;28;19920;-47
2022/08/29 03:11:55;;;;;;;;;;;15.70;99.90;;;;;;5073922;28;19920;-48
2022/08/29 03:14:22;;;;;;;;;;;15.60;99.90;;;;;;5073637;28;20291;-49
2022/08/29 03:16:47;;;;;;;;;;;15.70;99.90;;;;;;5073981;28;19965;-49
2022/08/29 03:19:13;;;;;;;;;;;15.70;99.90;;;;;;5073866;28;20411;-48
2022/08/29 03:21:38;;;;;;;;;;;15.60;99.90;;;;;;5074206;28;19919;-50
2022/08/29 03:24:04;;;;;;;;;;;15.50;99.90;;;;;;5073883;28;19916;-50
2022/08/29 03:26:29;;;;;;;;;;;15.60;99.90;;;;;;5073752;28;20057;-47
2022/08/29 03:28:55;;;;;;;;;;;15.70;99.90;;;;;;5073667;28;20438;-51
2022/08/29 03:31:21;;;;;;;;;;;15.60;99.90;;;;;;5073682;28;20313;-49
2022/08/29 03:33:46;;;;;;;;;;;15.60;99.90;;;;;;5073672;28;19947;-47
2022/08/29 03:36:12;;;;;;;;;;;15.60;99.90;;;;;;5073741;28;19923;-49
2022/08/29 03:38:38;;;;;;;;;;;15.60;99.90;;;;;;5073234;28;20357;-47
2022/08/29 03:41:04;;;;;;;;;;;15.50;99.90;;;;;;5073570;28;19923;-48
2022/08/29 03:43:30;;;;;;;;;;;15.60;99.90;;;;;;5054739;28;20003;-48
2022/08/29 03:45:55;;;;;;;;;;;15.60;99.90;;;;;;5071495;28;20352;-46
2022/08/29 03:48:21;;;;;;;;;;;15.60;99.90;;;;;;5073466;28;19969;-47
2022/08/29 03:50:46;;;;;;;;;;;15.60;99.90;;;;;;5073193;28;19952;-47
2022/08/29 03:53:12;;;;;;;;;;;15.50;99.90;;;;;;5073011;28;19916;-48
2022/08/29 03:55:38;;;;;;;;;;;15.50;99.90;;;;;;5071931;28;19924;-48
2022/08/29 03:58:04;;;;;;;;;;;15.50;99.90;;;;;;5073202;28;19966;-47
2022/08/29 04:00:29;;;;;;;;;;;15.50;99.90;;;;;;5072981;28;20363;-49
2022/08/29 04:02:57;;;;;;;;;;;15.40;99.90;;;;;;5073330;28;19927;-50
2022/08/29 04:05:22;;;;;;;;;;;15.40;99.90;;;;;;5072980;28;19920;-49
2022/08/29 04:07:52;;;;;;;;;;;15.30;99.90;;;;;;5072851;28;20447;-49
2022/08/29 04:10:22;;;;;;;;;;;15.30;99.90;;;;;;5072755;28;19959;-49
2022/08/29 04:12:48;;;;;;;;;;;15.30;99.90;;;;;;5071211;28;19923;-49
2022/08/29 04:15:13;;;;;;;;;;;15.20;99.90;;;;;;5072789;28;19916;-47
2022/08/29 04:17:39;;;;;;;;;;;15.10;99.90;;;;;;5071452;28;19928;-48
2022/08/29 04:20:06;;;;;;;;;;;15.10;99.90;;;;;;5072468;28;19916;-49
2022/08/29 04:22:33;;;;;;;;;;;15.00;99.90;;;;;;5072568;28;20032;-50
2022/08/29 04:24:58;;;;;;;;;;;15.10;99.90;;;;;;5072729;28;19916;-47
2022/08/29 04:27:24;;;;;;;;;;;15.10;99.90;;;;;;5072687;28;20054;-48
2022/08/29 04:29:49;;;;;;;;;;;15.00;99.90;;;;;;5073025;28;19959;-50
2022/08/29 04:32:15;;;;;;;;;;;15.10;99.90;;;;;;5072396;28;19976;-50
2022/08/29 04:34:40;;;;;;;;;;;15.10;99.90;;;;;;5072337;28;19970;-47
2022/08/29 04:37:06;;;;;;;;;;;15.10;99.90;;;;;;5070728;28;20019;-48
2022/08/29 04:39:32;;;;;;;;;;;15.10;99.90;;;;;;5072088;28;19927;-49
2022/08/29 04:41:58;;;;;;;;;;;15.00;99.90;;;;;;5072416;28;20368;-48
2022/08/29 04:44:23;;;;;;;;;;;15.10;99.90;;;;;;5070715;28;19916;-50
2022/08/29 04:46:49;;;;;;;;;;;15.00;99.90;;;;;;5070626;28;20391;-46
2022/08/29 04:49:15;;;;;;;;;;;15.10;99.90;;;;;;5071861;28;20367;-49
2022/08/29 04:51:40;;;;;;;;;;;15.10;99.90;;;;;;5072233;28;19959;-50
2022/08/29 04:54:06;;;;;;;;;;;15.00;99.90;;;;;;5071936;28;19920;-47
2022/08/29 04:56:31;;;;;;;;;;;15.10;99.90;;;;;;5070689;28;19916;-47
2022/08/29 04:58:57;;;;;;;;;;;15.10;99.90;;;;;;5071831;28;20027;-49
2022/08/29 05:01:24;;;;;;;;;;;15.10;99.90;;;;;;5071979;28;20014;-50
2022/08/29 05:03:51;;;;;;;;;;;15.20;99.90;;;;;;5071841;28;19977;-48
2022/08/29 05:06:18;;;;;;;;;;;15.10;99.90;;;;;;5071792;28;19916;-50
2022/08/29 05:08:44;;;;;;;;;;;15.10;99.90;;;;;;5071918;28;19924;-48
2022/08/29 05:11:15;;;;;;;;;;;15.10;99.90;;;;;;5070354;28;19916;-48
2022/08/29 05:13:41;;;;;;;;;;;15.10;99.90;;;;;;5071268;28;19973;-46
2022/08/29 05:16:08;;;;;;;;;;;15.00;99.90;;;;;;5071691;28;19920;-49
2022/08/29 05:18:34;;;;;;;;;;;15.00;99.90;;;;;;5071395;28;19923;-47
2022/08/29 05:21:00;;;;;;;;;;;15.10;99.90;;;;;;5071613;28;19924;-46
2022/08/29 05:23:25;;;;;;;;;;;15.10;99.90;;;;;;5071590;28;19920;-46
2022/08/29 05:25:58;;;;;;;;;;;15.10;99.90;;;;;;5071390;28;19960;-48
2022/08/29 05:28:24;;;;;;;;;;;15.00;99.90;;;;;;5070965;28;19994;-50
2022/08/29 05:30:49;;;;;;;;;;;15.10;99.90;;;;;;5068789;28;19923;-47
2022/08/29 05:33:16;;;;;;;;;;;15.10;99.90;;;;;;5071506;28;19920;-48
2022/08/29 05:35:41;;;;;;;;;;;15.10;99.90;;;;;;5071198;28;19927;-48
2022/08/29 05:38:07;;;;;;;;;;;15.20;99.90;;;;;;5071301;28;19916;-48
2022/08/29 05:40:33;;;;;;;;;;;15.20;99.90;;;;;;5071171;28;19939;-49
2022/08/29 05:42:59;;;;;;;;;;;15.20;99.90;;;;;;5071003;28;19928;-48
2022/08/29 05:45:24;;;;;;;;;;;15.20;99.90;;;;;;5070787;28;19928;-48
2022/08/29 05:47:50;;;;;;;;;;;15.40;99.90;;;;;;5071142;28;19927;-49
2022/08/29 05:50:15;;;;;;;;;;;15.40;99.90;;;;;;5071068;28;20390;-49
2022/08/29 05:52:42;;;;;;;;;;;15.40;99.90;;;;;;5071112;28;19916;-51
2022/08/29 05:55:07;;;;;;;;;;;15.50;99.90;;;;;;5070631;28;19920;-49
2022/08/29 05:57:33;;;;;;;;;;;15.40;99.90;;;;;;5071130;28;19920;-50
2022/08/29 05:59:59;;;;;;;;;;;15.50;99.90;;;;;;5070943;28;19948;-48
2022/08/29 06:02:24;;;;;;;;;;;15.50;99.90;;;;;;5070907;28;20368;-50
2022/08/29 06:04:50;;;;;;;;;;;15.50;99.90;;;;;;5070798;28;20421;-51
2022/08/29 06:07:16;;;;;;;;;;;15.60;99.90;;;;;;5070982;28;19926;-49
2022/08/29 06:09:42;;;;;;;;;;;15.70;99.90;;;;;;5070665;28;20614;-49
2022/08/29 06:12:08;;;;;;;;;;;15.70;99.90;;;;;;5070699;28;19916;-48
2022/08/29 06:14:34;;;;;;;;;;;15.70;99.90;;;;;;5070189;28;20395;-50
2022/08/29 06:17:00;;;;;;;;;;;15.80;99.90;;;;;;5070774;28;19960;-49
2022/08/29 06:19:27;;;;;;;;;;;15.80;99.90;;;;;;5069199;28;19920;-48
2022/08/29 06:21:54;;;;;;;;;;;15.90;99.90;;;;;;5070830;28;20363;-49
2022/08/29 06:24:20;;;;;;;;;;;15.90;99.90;;;;;;5069973;28;20252;-49
2022/08/29 06:26:45;;;;;;;;;;;16.00;99.90;;;;;;5070431;28;20019;-47
2022/08/29 06:29:11;;;;;;;;;;;16.00;99.90;;;;;;5070470;28;19924;-49
2022/08/29 06:31:37;;;;;;;;;;;16.00;99.90;;;;;;5070247;28;19931;-50
2022/08/29 06:34:04;;;;;;;;;;;16.10;99.90;;;;;;5070206;28;19923;-51
2022/08/29 06:36:30;;;;;;;;;;;16.10;99.90;;;;;;5070428;28;20011;-49
2022/08/29 06:38:56;;;;;;;;;;;16.20;99.90;;;;;;5070919;28;20439;-48
2022/08/29 06:41:23;;;;;;;;;;;16.20;99.90;;;;;;5074626;28;19999;-50
2022/08/29 06:43:49;;;;;;;;;;;16.20;99.90;;;;;;5074326;28;19920;-49
2022/08/29 06:46:21;;;;;;;;;;;16.20;99.90;;;;;;5072639;28;20289;-49
2022/08/29 06:48:46;;;;;;;;;;;16.20;99.90;;;;;;5072838;28;19975;-51
2022/08/29 06:51:12;;;;;;;;;;;16.30;99.90;;;;;;5074526;28;19916;-51
2022/08/29 06:53:38;;;;;;;;;;;16.30;99.90;;;;;;5074570;28;19923;-47
2022/08/29 06:56:04;;;;;;;;;;;16.20;99.90;;;;;;5074440;28;20379;-48
2022/08/29 06:58:30;;;;;;;;;;;16.30;99.90;;;;;;5074598;28;19939;-48
2022/08/29 07:00:55;;;;;;;;;;;16.40;99.90;;;;;;5074217;28;19920;-52
2022/08/29 07:03:21;;;;;;;;;;;16.40;99.90;;;;;;5073989;28;19920;-50
2022/08/29 07:05:53;;;;;;;;;;;16.40;99.90;;;;;;5073008;28;19923;-50
2022/08/29 07:08:19;;;;;;;;;;;16.40;99.90;;;;;;5073765;28;20042;-49
2022/08/29 07:10:45;;;;;;;;;;;16.50;99.90;;;;;;5073926;28;19964;-48
2022/08/29 07:13:10;;;;;;;;;;;16.60;99.90;;;;;;5072106;28;19916;-48
2022/08/29 07:15:36;;;;;;;;;;;16.70;99.90;;;;;;5073663;28;19923;-48
2022/08/29 07:18:02;;;;;;;;;;;16.70;99.90;;;;;;5074098;28;19970;-48
2022/08/29 07:20:27;;;;;;;;;;;16.80;99.90;;;;;;5073619;28;20113;-49
2022/08/29 07:22:54;;;;;;;;;;;16.90;99.90;;;;;;5073556;28;19926;-49
2022/08/29 07:25:20;;;;;;;;;;;17.10;99.90;;;;;;5072882;28;19969;-51
2022/08/29 07:27:47;;;;;;;;;;;17.00;99.90;;;;;;5073770;28;19924;-49
2022/08/29 07:30:15;;;;;;;;;;;17.20;99.90;;;;;;5073484;28;19979;-48
2022/08/29 07:32:43;;;;;;;;;;;17.40;99.90;;;;;;5073627;28;19959;-47
2022/08/29 07:35:10;;;;;;;;;;;17.30;99.90;;;;;;5073549;28;20329;-50
2022/08/29 07:37:35;;;;;;;;;;;17.40;99.90;;;;;;5073851;28;20626;-46
2022/08/29 07:40:01;;;;;;;;;;;17.60;99.90;;;;;;5073101;28;19920;-50
2022/08/29 07:42:27;;;;;;;;;;;17.70;99.90;;;;;;5072327;28;19951;-48
2022/08/29 07:44:52;;;;;;;;;;;17.80;99.90;;;;;;5072968;28;20363;-49
2022/08/29 07:47:19;;;;;;;;;;;17.90;99.90;;;;;;5073244;28;20410;-49
2022/08/29 07:49:45;;;;;;;;;;;17.90;99.90;;;;;;5072823;28;19928;-51
2022/08/29 07:52:10;;;;;;;;;;;18.00;99.90;;;;;;5073454;28;19985;-49
2022/08/29 07:54:36;;;;;;;;;;;18.20;99.90;;;;;;5071322;28;19921;-50
2022/08/29 07:57:02;;;;;;;;;;;18.30;99.90;;;;;;5068021;28;19965;-49
2022/08/29 07:59:29;;;;;;;;;;;18.30;99.90;;;;;;5072659;28;20378;-48
2022/08/29 08:01:54;;;;;;;;;;;18.30;99.90;;;;;;5073050;28;20070;-47
2022/08/29 08:04:20;;;;;;;;;;;18.50;99.90;;;;;;5073067;28;20043;-50
2022/08/29 08:06:46;;;;;;;;;;;18.70;99.90;;;;;;5073170;28;19971;-50
2022/08/29 08:09:13;;;;;;;;;;;18.90;99.90;;;;;;5072649;28;20386;-49
2022/08/29 08:11:38;;;;;;;;;;;18.80;99.90;;;;;;5072900;28;19928;-47
2022/08/29 08:14:04;;;;;;;;;;;18.70;99.90;;;;;;5072375;28;19916;-51
2022/08/29 08:16:30;;;;;;;;;;;18.80;99.90;;;;;;5073051;28;20001;-49
2022/08/29 08:18:56;;;;;;;;;;;18.70;99.90;;;;;;5072616;28;20018;-50
2022/08/29 08:21:23;;;;;;;;;;;18.60;99.90;;;;;;5071446;28;20050;-48
2022/08/29 08:23:48;;;;;;;;;;;18.60;99.90;;;;;;5069459;28;19924;-48
2022/08/29 08:26:14;;;;;;;;;;;18.60;99.90;;;;;;5072829;28;19920;-53
2022/08/29 08:28:41;;;;;;;;;;;18.70;99.90;;;;;;5071905;28;20007;-48
2022/08/29 08:31:07;;;;;;;;;;;18.80;99.90;;;;;;5072423;28;19942;-50
2022/08/29 08:33:33;;;;;;;;;;;18.90;99.90;;;;;;5071091;28;19922;-49
2022/08/29 08:35:59;;;;;;;;;;;19.00;99.90;;;;;;5072673;28;19956;-49
2022/08/29 08:38:25;;;;;;;;;;;19.10;99.90;;;;;;5072525;28;20010;-50
2022/08/29 08:41:04;;;;;;;;;;;19.10;99.90;;;;;;5070832;28;19916;-49
2022/08/29 08:43:56;;;;;;;;;;;19.20;99.90;;;;;;5071990;28;19916;-49
2022/08/29 08:46:43;;;;;;;;;;;19.30;99.90;;;;;;5069695;28;19924;-48
2022/08/29 08:49:20;;;;;;;;;;;19.40;99.90;;;;;;5072128;28;20398;-51
2022/08/29 08:51:49;;;;;;;;;;;19.40;99.90;;;;;;5072359;28;19931;-48
2022/08/29 08:54:20;;;;;;;;;;;19.50;99.90;;;;;;5071881;28;19916;-49
2022/08/29 08:56:48;;;;;;;;;;;19.50;99.90;;;;;;5072518;28;19916;-48
2022/08/29 08:59:15;;;;;;;;;;;19.50;99.90;;;;;;5072007;28;19947;-47
2022/08/29 09:01:42;;;;;;;;;;;19.60;99.90;;;;;;5069947;28;19920;-49
2022/08/29 09:04:18;;;;;;;;;;;19.70;99.90;;;;;;5071969;28;20364;-49
2022/08/29 09:06:49;;;;;;;;;;;19.80;99.90;;;;;;5071785;28;20367;-49
2022/08/29 09:09:44;;;;;;;;;;;20.00;99.90;;;;;;5071758;28;20069;-48
2022/08/29 09:12:28;;;;;;;;;;;20.00;99.90;;;;;;5057401;28;20387;-49
2022/08/29 09:15:00;;;;;;;;;;;19.90;99.90;;;;;;5070836;28;19924;-47
2022/08/29 09:17:29;;;;;;;;;;;19.90;99.90;;;;;;5071708;28;19924;-51
2022/08/29 09:19:56;;;;;;;;;;;20.10;99.90;;;;;;5071592;28;19916;-49
2022/08/29 09:22:26;;;;;;;;;;;20.10;99.90;;;;;;5071663;28;19920;-49
2022/08/29 09:25:00;;;;;;;;;;;20.20;99.90;;;;;;5071588;28;19966;-51
2022/08/29 09:27:28;;;;;;;;;;;20.60;99.90;;;;;;5071616;28;19957;-46
2022/08/29 09:30:00;;;;;;;;;;;20.60;99.90;;;;;;5071163;28;20130;-49
2022/08/29 09:32:26;;;;;;;;;;;20.60;99.90;;;;;;5071574;28;19924;-48
2022/08/29 09:34:52;;;;;;;;;;;20.90;99.90;;;;;;5071555;28;19927;-47
2022/08/29 09:37:26;;;;;;;;;;;21.00;99.90;;;;;;5070878;28;19917;-45
2022/08/29 09:39:55;;;;;;;;;;;21.00;99.90;;;;;;5069848;28;19927;-46
2022/08/29 09:42:21;;;;;;;;;;;21.10;99.90;;;;;;5071370;28;19965;-49
2022/08/29 09:44:58;;;;;;;;;;;21.10;99.90;;;;;;5069307;28;20412;-49
2022/08/29 09:47:26;;;;;;;;;;;20.90;99.90;;;;;;5071494;28;19920;-48
2022/08/29 09:50:10;;;;;;;;;;;20.80;99.90;;;;;;5070925;28;19987;-46
2022/08/29 09:52:37;;;;;;;;;;;20.90;99.90;;;;;;5070836;28;20375;-47
2022/08/29 09:55:17;;;;;;;;;;;20.70;99.90;;;;;;5071352;28;20054;-47
2022/08/29 09:57:47;;;;;;;;;;;20.70;99.90;;;;;;5103229;28;19917;-48
2022/08/29 10:00:15;;;;;;;;;;;21.00;99.90;;;;;;5070711;28;19969;-48
2022/08/29 10:02:41;;;;;;;;;;;21.00;99.90;;;;;;5071066;28;20363;-48
2022/08/29 10:05:09;;;;;;;;;;;21.00;99.90;;;;;;5070914;28;20062;-50
2022/08/29 10:07:45;;;;;;;;;;;21.20;99.90;;;;;;5071137;28;20470;-51
2022/08/29 10:10:16;;;;;;;;;;;21.20;99.90;;;;;;5069688;28;20260;-47
2022/08/29 10:13:00;;;;;;;;;;;21.10;99.90;;;;;;5070661;28;19916;-49
2022/08/29 10:15:28;;;;;;;;;;;21.40;99.90;;;;;;5070084;28;20011;-51
2022/08/29 10:18:22;;;;;;;;;;;21.50;99.90;;;;;;5070695;28;19916;-49
2022/08/29 10:20:58;;;;;;;;;;;21.50;99.90;;;;;;5070139;28;19916;-46
2022/08/29 10:23:34;;;;;;;;;;;21.60;99.90;;;;;;5070973;28;19916;-47
2022/08/29 10:26:03;;;;;;;;;;;21.40;99.90;;;;;;5070435;28;19916;-47
2022/08/29 10:28:34;;;;;;;;;;;21.80;99.90;;;;;;5070740;28;20287;-48
2022/08/29 10:31:10;;;;;;;;;;;22.10;99.90;;;;;;5070554;28;19965;-48
2022/08/29 10:33:38;;;;;;;;;;;22.20;99.90;;;;;;5070506;28;20425;-49
2022/08/29 10:36:09;;;;;;;;;;;22.10;99.90;;;;;;5070077;28;19924;-47
2022/08/29 10:38:35;;;;;;;;;;;22.30;99.90;;;;;;5070221;28;19920;-47
2022/08/29 10:41:04;;;;;;;;;;;22.30;99.90;;;;;;5070867;28;19973;-50
2022/08/29 10:43:38;;;;;;;;;;;22.70;99.90;;;;;;5070198;28;20283;-47
2022/08/29 10:46:22;;;;;;;;;;;22.50;99.90;;;;;;5070337;28;19924;-49
2022/08/29 10:49:03;;;;;;;;;;;22.50;99.90;;;;;;5070194;28;19927;-47
2022/08/29 10:51:32;;;;;;;;;;;22.40;99.90;;;;;;5069416;28;20003;-49
2022/08/29 10:54:03;;;;;;;;;;;22.30;99.90;;;;;;5070079;28;20360;-50
2022/08/29 10:56:39;;;;;;;;;;;22.20;99.90;;;;;;5068868;28;19925;-48
2022/08/29 10:59:07;;;;;;;;;;;22.10;99.90;;;;;;5070168;28;19954;-48
2022/08/29 11:01:37;;;;;;;;;;;22.30;99.90;;;;;;5070333;28;19916;-48
2022/08/29 11:04:16;;;;;;;;;;;22.70;99.90;;;;;;5070006;28;19916;-46
2022/08/29 11:06:50;;;;;;;;;;;23.10;99.90;;;;;;5070203;28;19916;-47
2022/08/29 11:09:27;;;;;;;;;;;23.00;99.80;;;;;;5069853;28;19924;-46
2022/08/29 11:12:08;;;;;;;;;;;22.80;99.90;;;;;;5070543;28;20046;-48
2022/08/29 11:14:37;;;;;;;;;;;22.70;99.80;;;;;;5068270;28;20014;-49
2022/08/29 11:17:05;;;;;;;;;;;22.50;99.90;;;;;;5070279;28;19965;-51
2022/08/29 11:19:33;;;;;;;;;;;22.50;99.70;;;;;;5068829;28;20355;-50
2022/08/29 11:22:03;;;;;;;;;;;22.30;99.90;;;;;;5070153;28;19980;-48
2022/08/29 11:24:32;;;;;;;;;;;22.40;99.90;;;;;;5070137;28;20390;-51
2022/08/29 11:27:07;;;;;;;;;;;22.40;99.90;;;;;;5073486;28;19950;-48
2022/08/29 11:29:52;;;;;;;;;;;22.20;99.90;;;;;;5073681;28;20280;-46
2022/08/29 11:32:36;;;;;;;;;;;22.40;99.90;;;;;;5073594;28;19963;-52
2022/08/29 11:35:19;;;;;;;;;;;22.50;99.90;;;;;;5073670;28;19921;-48
2022/08/29 11:37:53;;;;;;;;;;;22.70;99.90;;;;;;5072346;28;19927;-46
2022/08/29 11:40:26;;;;;;;;;;;23.10;99.90;;;;;;5073563;28;19917;-48
2022/08/29 11:42:52;;;;;;;;;;;23.00;99.40;;;;;;5073636;28;19924;-46
2022/08/29 11:45:25;;;;;;;;;;;22.70;99.90;;;;;;5072875;28;20345;-51
2022/08/29 11:47:57;;;;;;;;;;;22.50;99.10;;;;;;5073301;28;19962;-49
2022/08/29 11:50:33;;;;;;;;;;;22.40;98.80;;;;;;5073225;28;20323;-50
2022/08/29 11:53:08;;;;;;;;;;;22.60;99.70;;;;;;5073072;28;19920;-49
2022/08/29 11:55:38;;;;;;;;;;;22.90;99.20;;;;;;5072523;28;19980;-49
2022/08/29 11:58:13;;;;;;;;;;;22.80;99.50;;;;;;5073338;28;19916;-48
2022/08/29 12:00:38;;;;;;;;;;;22.80;98.80;;;;;;5073287;28;20382;-47
2022/08/29 12:03:24;;;;;;;;;;;22.90;99.50;;;;;;5073196;28;19920;-51
2022/08/29 12:05:53;;;;;;;;;;;22.90;99.40;;;;;;5072675;28;20466;-48
2022/08/29 12:08:30;;;;;;;;;;;23.20;99.20;;;;;;5073084;28;19920;-49
2022/08/29 12:10:56;;;;;;;;;;;23.10;98.20;;;;;;5073154;28;19946;-45
2022/08/29 12:13:40;;;;;;;;;;;23.40;97.80;;;;;;5072792;28;19916;-50
2022/08/29 12:16:10;;;;;;;;;;;23.80;97.70;;;;;;5072878;28;20002;-46
2022/08/29 12:18:43;;;;;;;;;;;23.90;97.70;;;;;;5072981;28;19959;-48
2022/08/29 12:21:27;;;;;;;;;;;23.60;97.40;;;;;;5072683;28;19921;-51
2022/08/29 12:23:52;;;;;;;;;;;23.50;97.90;;;;;;5072909;28;20401;-49
2022/08/29 12:26:37;;;;;;;;;;;23.40;97.60;;;;;;5071246;28;19916;-50
2022/08/29 12:29:02;;;;;;;;;;;23.40;97.60;;;;;;5072370;28;19931;-47
2022/08/29 12:31:40;;;;;;;;;;;23.40;97.60;;;;;;5071476;28;20030;-50
2022/08/29 12:34:35;;;;;;;;;;;23.30;97.10;;;;;;5072694;28;20467;-46
2022/08/29 12:37:10;;;;;;;;;;;23.20;96.80;;;;;;5062273;28;19939;-48
2022/08/29 12:39:35;;;;;;;;;;;23.30;97.30;;;;;;5072482;28;19917;-49
2022/08/29 12:42:19;;;;;;;;;;;23.30;97.70;;;;;;5072471;28;20296;-50
2022/08/29 12:44:47;;;;;;;;;;;23.30;97.60;;;;;;5071851;28;19926;-49
2022/08/29 12:47:12;;;;;;;;;;;23.10;98.10;;;;;;5072069;28;19927;-49
2022/08/29 12:49:52;;;;;;;;;;;23.10;98.40;;;;;;5072045;28;20023;-49
2022/08/29 12:52:36;;;;;;;;;;;22.90;98.60;;;;;;5072096;28;20046;-48
2022/08/29 12:55:17;;;;;;;;;;;23.00;99.10;;;;;;5070970;28;19924;-48
2022/08/29 12:57:44;;;;;;;;;;;22.90;99.00;;;;;;5071819;28;19966;-50
2022/08/29 13:00:17;;;;;;;;;;;22.80;98.70;;;;;;5070702;28;19970;-50
2022/08/29 13:02:53;;;;;;;;;;;22.90;99.00;;;;;;5072106;28;19924;-50
2022/08/29 13:05:21;;;;;;;;;;;22.70;98.50;;;;;;5072258;28;19943;-49
2022/08/29 13:07:55;;;;;;;;;;;22.60;98.40;;;;;;5072117;28;19923;-47
2022/08/29 13:10:20;;;;;;;;;;;22.70;98.10;;;;;;5071636;28;20011;-48
2022/08/29 13:12:46;;;;;;;;;;;22.70;98.30;;;;;;5071879;28;20003;-48
2022/08/29 13:15:19;;;;;;;;;;;22.70;98.70;;;;;;5071089;28;20405;-49
2022/08/29 13:17:47;;;;;;;;;;;22.70;98.10;;;;;;5071666;28;19998;-45
2022/08/29 13:20:31;;;;;;;;;;;22.60;98.60;;;;;;5071670;28;19916;-49
2022/08/29 13:23:04;;;;;;;;;;;22.50;99.30;;;;;;5071426;28;19924;-48
2022/08/29 13:25:31;;;;;;;;;;;22.50;99.30;;;;;;5071277;28;19924;-47
2022/08/29 13:27:56;;;;;;;;;;;22.50;99.90;;;;;;5103843;28;19930;-49
2022/08/29 13:30:23;;;;;;;;;;;22.40;99.70;;;;;;5071413;28;19916;-48
2022/08/29 13:32:49;;;;;;;;;;;22.40;99.50;;;;;;5071640;28;19919;-47
2022/08/29 13:35:15;;;;;;;;;;;22.60;99.70;;;;;;5071278;28;19938;-47
2022/08/29 13:37:42;;;;;;;;;;;22.60;99.30;;;;;;5071441;28;19920;-45
2022/08/29 13:40:27;;;;;;;;;;;22.60;99.30;;;;;;5070148;28;20015;-49
2022/08/29 13:42:52;;;;;;;;;;;22.60;99.60;;;;;;5071543;28;19916;-47
2022/08/29 13:45:22;;;;;;;;;;;22.90;99.70;;;;;;5069254;28;19916;-48
2022/08/29 13:47:53;;;;;;;;;;;22.60;99.30;;;;;;5071063;28;19921;-48
2022/08/29 13:50:18;;;;;;;;;;;23.00;99.40;;;;;;5071065;28;19927;-48
2022/08/29 13:52:44;;;;;;;;;;;23.10;99.20;;;;;;5071399;28;20375;-49
2022/08/29 13:55:10;;;;;;;;;;;23.10;98.90;;;;;;5070607;28;19916;-48
2022/08/29 13:57:37;;;;;;;;;;;23.20;98.80;;;;;;5071034;28;19927;-47
2022/08/29 14:00:04;;;;;;;;;;;23.10;98.40;;;;;;5071080;28;19916;-46
2022/08/29 14:02:30;;;;;;;;;;;22.90;98.20;;;;;;5070941;28;19923;-47
2022/08/29 14:04:55;;;;;;;;;;;23.20;99.00;;;;;;5070940;28;19920;-49
2022/08/29 14:07:23;;;;;;;;;;;23.10;98.50;;;;;;5071144;28;19921;-47
2022/08/29 14:09:49;;;;;;;;;;;23.00;98.40;;;;;;5070629;28;20065;-47
2022/08/29 14:12:15;;;;;;;;;;;23.10;98.70;;;;;;5071231;28;19999;-48
2022/08/29 14:14:41;;;;;;;;;;;23.30;99.30;;;;;;5068671;28;20406;-47
2022/08/29 14:17:07;;;;;;;;;;;23.20;99.20;;;;;;5069508;28;19932;-47
2022/08/29 14:19:33;;;;;;;;;;;23.30;99.70;;;;;;5070849;28;19920;-49
2022/08/29 14:21:59;;;;;;;;;;;23.10;98.80;;;;;;5070684;28;20030;-45
2022/08/29 14:24:28;;;;;;;;;;;23.30;99.10;;;;;;5070809;28;20015;-47
2022/08/29 14:26:54;;;;;;;;;;;23.20;98.90;;;;;;5070719;28;20003;-50